Time;durP1;ratioP1;P1;durP2;ratioP2;P2;SDS_P1;SDS_P2;PMS_P1;PMS_P2;Temp;Humidity;BMP_temperature;BMP_pressure;BME280_temperature;BME280_humidity;BME280_pressure;Samples;Min_cycle;Max_cycle;Signal;HPM_P1;HPM_P2
2022/03/20 00:00:04;;;;;;;;;8.50;3.00;;;;;10.44;36.17;102463.69;5053240;28;45489;-63
2022/03/20 00:02:32;;;;;;;;;2.50;2.50;;;;;10.44;35.82;102468.97;5053883;28;45515;-63
2022/03/20 00:05:00;;;;;;;;;4.00;2.50;;;;;10.43;36.33;102461.09;5050578;28;45474;-63
2022/03/20 00:07:26;;;;;;;;;3.00;2.00;;;;;10.40;36.32;102462.03;5049853;28;45428;-63
2022/03/20 00:09:52;;;;;;;;;3.00;3.00;;;;;10.37;35.85;102459.53;5050161;28;45320;-65
2022/03/20 00:12:18;;;;;;;;;4.00;4.00;;;;;10.35;36.30;102458.72;5050112;28;45384;-60
2022/03/20 00:14:44;;;;;;;;;6.75;4.00;;;;;10.30;35.99;102461.47;5051224;28;45296;-63
2022/03/20 00:17:09;;;;;;;;;7.00;4.00;;;;;10.27;36.38;102463.34;5047803;28;45383;-61
2022/03/20 00:19:35;;;;;;;;;3.00;3.00;;;;;10.19;36.58;102458.28;5051517;28;45431;-62
2022/03/20 00:22:00;;;;;;;;;5.00;5.00;;;;;10.14;36.56;102457.53;5056629;28;45368;-62
2022/03/20 00:24:26;;;;;;;;;7.50;5.25;;;;;10.12;36.93;102458.50;5052959;28;45631;-63
2022/03/20 00:26:56;;;;;;;;;3.25;3.00;;;;;10.08;37.54;102469.13;5051402;28;45419;-60
2022/03/20 00:29:26;;;;;;;;;3.00;3.00;;;;;10.02;37.43;102460.53;5051468;28;45498;-63
2022/03/20 00:31:52;;;;;;;;;5.50;3.00;;;;;9.96;37.40;102458.09;5052721;28;45333;-62
2022/03/20 00:34:19;;;;;;;;;3.75;2.50;;;;;9.90;37.62;102461.75;5050599;28;45220;-60
2022/03/20 00:36:44;;;;;;;;;3.75;2.00;;;;;9.84;37.67;102459.31;5036194;28;46971;-64
2022/03/20 00:39:10;;;;;;;;;3.00;2.00;;;;;9.81;37.30;102459.41;5053667;28;45433;-63
2022/03/20 00:41:36;;;;;;;;;2.50;2.00;;;;;9.78;37.37;102451.56;5052517;28;45594;-64
2022/03/20 00:44:01;;;;;;;;;3.25;2.00;;;;;9.74;37.46;102449.94;5034691;28;45349;-62
2022/03/20 00:46:27;;;;;;;;;2.00;2.00;;;;;9.70;37.61;102448.28;5030128;28;46935;-66
2022/03/20 00:48:53;;;;;;;;;2.00;2.00;;;;;9.64;37.68;102451.13;5050414;28;45345;-60
2022/03/20 00:51:19;;;;;;;;;2.75;1.00;;;;;9.60;37.61;102447.69;5053635;28;45475;-63
2022/03/20 00:53:45;;;;;;;;;2.00;2.00;;;;;9.55;37.71;102452.22;5052422;28;45542;-63
2022/03/20 00:56:12;;;;;;;;;1.25;1.25;;;;;9.52;37.86;102441.78;5051220;28;45356;-62
2022/03/20 00:58:38;;;;;;;;;2.00;1.00;;;;;9.47;37.84;102443.66;5050567;28;45245;-63
2022/03/20 01:01:04;;;;;;;;;3.00;2.00;;;;;9.42;38.01;102440.31;5051579;28;45427;-63
2022/03/20 01:03:30;;;;;;;;;7.00;2.00;;;;;9.36;37.79;102437.84;5052690;28;45260;-63
2022/03/20 01:05:55;;;;;;;;;3.75;1.00;;;;;9.29;38.29;102431.88;5052115;28;45357;-62
2022/03/20 01:08:21;;;;;;;;;6.00;2.00;;;;;9.25;38.25;102432.91;5049772;28;45321;-68
2022/03/20 01:10:47;;;;;;;;;2.00;2.00;;;;;9.22;38.37;102428.56;5050990;28;46583;-63
2022/03/20 01:13:12;;;;;;;;;1.50;1.50;;;;;9.21;38.43;102431.22;5052256;28;45408;-66
2022/03/20 01:15:38;;;;;;;;;1.75;1.00;;;;;9.16;38.73;102428.75;5050730;28;45949;-64
2022/03/20 01:18:03;;;;;;;;;1.75;1.75;;;;;9.12;38.77;102431.47;5050576;28;45604;-64
2022/03/20 01:20:29;;;;;;;;;2.00;2.00;;;;;9.05;38.71;102419.38;5047954;28;45713;-63
2022/03/20 01:22:54;;;;;;;;;3.25;2.00;;;;;9.04;39.19;102418.53;5049983;28;45460;-63
2022/03/20 01:25:20;;;;;;;;;3.25;2.75;;;;;9.00;39.16;102422.13;5050752;28;46624;-63
2022/03/20 01:27:46;;;;;;;;;2.00;2.00;;;;;8.96;39.03;102417.88;5051273;28;45352;-62
2022/03/20 01:30:11;;;;;;;;;3.50;1.00;;;;;8.92;39.54;102424.94;5053301;28;45430;-62
2022/03/20 01:32:37;;;;;;;;;2.00;2.00;;;;;8.89;39.44;102418.94;5072428;28;45288;-62
2022/03/20 01:35:03;;;;;;;;;2.00;1.00;;;;;8.84;39.49;102418.16;5061360;28;46157;-62
2022/03/20 01:37:28;;;;;;;;;1.50;1.50;;;;;8.78;39.79;102420.97;5041532;28;45333;-62
2022/03/20 01:39:54;;;;;;;;;1.00;1.00;;;;;8.74;39.61;102414.91;5052767;28;45352;-62
2022/03/20 01:42:21;;;;;;;;;3.50;1.25;;;;;8.71;39.78;102415.00;5041159;28;45304;-62
2022/03/20 01:44:47;;;;;;;;;1.00;1.00;;;;;8.64;40.07;102410.78;5041222;28;45413;-62
2022/03/20 01:47:13;;;;;;;;;1.50;1.50;;;;;8.59;40.18;102410.03;5040961;28;45479;-62
2022/03/20 01:49:40;;;;;;;;;6.00;2.00;;;;;8.56;40.19;102410.97;5041205;28;45468;-62
2022/03/20 01:52:23;;;;;;;;;1.75;1.50;;;;;8.56;40.52;102405.72;5041239;28;45309;-62
2022/03/20 01:54:49;;;;;;;;;2.00;2.00;;;;;8.57;40.36;102403.97;5040696;28;45433;-62
2022/03/20 01:57:22;;;;;;;;;1.50;1.50;;;;;8.56;40.52;102402.22;5040819;28;45507;-62
2022/03/20 01:59:49;;;;;;;;;3.00;1.75;;;;;8.54;40.54;102407.53;5048594;28;45413;-62
2022/03/20 02:02:15;;;;;;;;;2.75;2.00;;;;;8.52;40.74;102398.81;5061159;28;45352;-63
2022/03/20 02:04:40;;;;;;;;;2.00;2.00;;;;;8.52;40.66;102398.81;5060190;28;45454;-62
2022/03/20 02:07:07;;;;;;;;;2.75;2.75;;;;;8.50;41.06;102391.88;5060787;28;45422;-62
2022/03/20 02:09:36;;;;;;;;;4.25;2.00;;;;;8.49;40.84;102388.38;5061077;28;45455;-62
2022/03/20 02:12:02;;;;;;;;;4.25;2.50;;;;;8.47;41.09;102391.97;5060771;28;45549;-62
2022/03/20 02:14:27;;;;;;;;;1.00;1.00;;;;;8.41;41.17;102387.69;5061136;28;45366;-62
2022/03/20 02:16:55;;;;;;;;;4.00;2.00;;;;;8.40;41.30;102393.84;5060856;28;45302;-62
2022/03/20 02:19:21;;;;;;;;;2.75;1.00;;;;;8.38;41.48;102390.41;5061135;28;45489;-62
2022/03/20 02:21:49;;;;;;;;;2.25;2.00;;;;;8.36;41.32;102384.31;5060741;28;45312;-63
2022/03/20 02:24:35;;;;;;;;;2.75;2.00;;;;;8.35;41.65;102378.19;5061000;28;45874;-62
2022/03/20 02:27:17;;;;;;;;;5.00;2.25;;;;;8.31;41.67;102362.53;5060468;28;45253;-62
2022/03/20 02:29:44;;;;;;;;;4.75;3.00;;;;;8.27;41.97;102360.88;5060901;28;45411;-63
2022/03/20 02:32:12;;;;;;;;;2.00;2.00;;;;;8.22;41.88;102360.13;5060397;28;45392;-62
2022/03/20 02:34:39;;;;;;;;;2.50;2.25;;;;;8.22;42.27;102368.88;5060067;28;45402;-63
2022/03/20 02:37:06;;;;;;;;;2.50;2.00;;;;;8.18;42.31;102363.72;5060411;28;45421;-63
2022/03/20 02:39:32;;;;;;;;;1.75;1.00;;;;;8.14;42.66;102360.31;5060470;28;45260;-63
2022/03/20 02:42:02;;;;;;;;;2.25;1.75;;;;;8.11;42.74;102358.59;5041961;28;45341;-63
2022/03/20 02:44:49;;;;;;;;;1.25;1.25;;;;;8.06;42.56;102359.63;5040497;28;46217;-62
2022/03/20 02:47:20;;;;;;;;;3.00;3.00;;;;;8.02;43.11;102363.22;5046714;28;45566;-62
2022/03/20 02:49:49;;;;;;;;;4.00;2.25;;;;;7.96;43.08;102358.94;5040429;28;45424;-63
2022/03/20 02:52:15;;;;;;;;;4.00;2.00;;;;;7.95;43.47;102351.13;5040575;28;45289;-63
2022/03/20 02:54:40;;;;;;;;;3.00;1.50;;;;;7.89;43.18;102351.25;5040261;28;45729;-62
2022/03/20 02:57:08;;;;;;;;;2.00;2.00;;;;;7.86;43.27;102346.94;5040306;28;45427;-63
2022/03/20 02:59:34;;;;;;;;;4.00;2.75;;;;;7.85;43.68;102347.84;5040223;28;45238;-62
2022/03/20 03:02:01;;;;;;;;;3.00;2.75;;;;;7.83;43.73;102349.66;5040473;28;45237;-62
2022/03/20 03:04:26;;;;;;;;;2.25;2.25;;;;;7.80;43.69;102347.94;5040196;28;45466;-63
2022/03/20 03:06:52;;;;;;;;;2.00;2.00;;;;;7.76;44.00;102341.03;5040437;28;45443;-62
2022/03/20 03:12:04;;;;;;;;;2.25;2.25;;;;;7.70;43.85;102329.81;5040238;28;45397;-62
2022/03/20 03:17:14;;;;;;;;;3.00;1.50;;;;;7.68;44.29;102329.00;5040091;28;45309;-62
2022/03/20 03:19:39;;;;;;;;;5.50;3.75;;;;;7.63;44.58;102318.59;5040146;28;45317;-62
2022/03/20 03:22:05;;;;;;;;;6.75;5.00;;;;;7.63;44.50;102325.59;5040143;28;45416;-62
2022/03/20 03:24:30;;;;;;;;;6.00;2.50;;;;;7.60;44.64;102321.28;5048871;28;46010;-62
2022/03/20 03:26:56;;;;;;;;;3.00;3.00;;;;;7.61;44.88;102327.41;5059644;28;45362;-62
2022/03/20 03:29:21;;;;;;;;;3.00;2.50;;;;;7.59;45.17;102327.44;5060406;28;45317;-62
2022/03/20 03:31:47;;;;;;;;;5.75;3.00;;;;;7.56;44.97;102327.47;5058811;28;45284;-62
2022/03/20 03:37:01;;;;;;;;;8.00;6.00;;;;;7.56;45.20;102322.25;5024632;28;45523;-62
2022/03/20 03:39:26;;;;;;;;;4.50;4.50;;;;;7.56;45.61;102327.47;5058473;28;45359;-62
2022/03/20 03:41:52;;;;;;;;;6.25;2.25;;;;;7.54;45.57;102319.66;5041955;28;45396;-62
2022/03/20 03:44:19;;;;;;;;;4.50;4.50;;;;;7.54;45.62;102317.03;5040367;28;45376;-62
2022/03/20 03:46:44;;;;;;;;;5.00;3.50;;;;;7.56;45.46;102317.84;5043021;28;45482;-63
2022/03/20 03:49:10;;;;;;;;;5.00;5.00;;;;;7.59;45.37;102321.34;5042917;28;45338;-62
2022/03/20 03:51:35;;;;;;;;;6.00;3.00;;;;;7.59;45.31;102322.19;5043281;28;45262;-62
2022/03/20 03:54:00;;;;;;;;;8.25;5.00;;;;;7.57;45.80;102311.72;5043162;28;45321;-62
2022/03/20 03:56:26;;;;;;;;;5.50;5.50;;;;;7.59;45.42;102316.09;5042735;28;45435;-62
2022/03/20 03:58:51;;;;;;;;;4.25;3.50;;;;;7.56;45.57;102317.84;5025384;28;45270;-62
2022/03/20 04:01:17;;;;;;;;;7.50;5.75;;;;;7.53;45.81;102304.81;5042798;28;45463;-62
2022/03/20 04:03:42;;;;;;;;;6.50;5.25;;;;;7.54;46.33;102311.78;5043094;28;45182;-62
2022/03/20 04:06:09;;;;;;;;;6.00;3.00;;;;;7.54;46.04;102309.16;5042978;28;45242;-62
2022/03/20 04:08:34;;;;;;;;;7.00;6.00;;;;;7.51;46.17;102311.88;5043083;28;45244;-63
2022/03/20 04:11:00;;;;;;;;;6.00;6.00;;;;;7.51;45.87;102304.00;5042733;28;45244;-63
2022/03/20 04:13:26;;;;;;;;;6.50;5.00;;;;;7.52;45.68;102310.09;5042804;28;45228;-62
2022/03/20 04:15:52;;;;;;;;;8.00;6.75;;;;;7.50;46.29;102306.63;5042486;28;45368;-62
2022/03/20 04:18:18;;;;;;;;;8.00;6.75;;;;;7.48;46.46;102305.81;5043076;28;45399;-63
2022/03/20 04:20:44;;;;;;;;;6.50;6.50;;;;;7.48;46.27;102297.94;5042788;28;45416;-63
2022/03/20 04:25:54;;;;;;;;;6.00;5.00;;;;;7.45;46.19;102298.03;5049460;28;45316;-62
2022/03/20 04:28:21;;;;;;;;;6.00;3.00;;;;;7.45;46.53;102295.41;5062802;28;45423;-62
2022/03/20 04:30:48;;;;;;;;;13.25;8.50;;;;;7.45;46.12;102298.88;5062630;28;45336;-62
2022/03/20 04:33:14;;;;;;;;;5.75;5.25;;;;;7.42;46.40;102293.69;5062521;28;45266;-63
2022/03/20 04:35:40;;;;;;;;;7.00;6.00;;;;;7.43;46.63;102302.44;5062827;28;45248;-63
2022/03/20 04:38:05;;;;;;;;;5.25;5.25;;;;;7.40;47.09;102313.84;5062508;28;45233;-62
2022/03/20 04:40:31;;;;;;;;;8.25;6.00;;;;;7.36;46.81;102311.31;5055172;28;45154;-62
2022/03/20 04:42:56;;;;;;;;;9.00;6.25;;;;;7.36;47.16;102308.69;5042258;28;45246;-62
2022/03/20 04:45:22;;;;;;;;;5.25;5.25;;;;;7.36;46.66;102317.44;5049428;28;45378;-62
2022/03/20 04:58:43;;;;;;;;;7.50;5.25;;;;;7.28;47.58;102312.34;5042155;28;45310;-62
2022/03/20 05:01:09;;;;;;;;;6.00;5.00;;;;;7.24;47.21;102301.94;5041674;28;45438;-62
2022/03/20 05:03:35;;;;;;;;;7.50;6.50;;;;;7.22;47.76;102306.34;5041871;28;45321;-62
2022/03/20 05:06:05;;;;;;;;;6.00;6.00;;;;;7.19;47.65;102307.28;5041786;28;45336;-63
2022/03/20 05:08:32;;;;;;;;;5.25;5.25;;;;;7.17;47.56;102295.09;5042047;28;45325;-62
2022/03/20 05:13:41;;;;;;;;;6.25;5.25;;;;;7.14;47.58;102303.03;5041734;28;45241;-62
2022/03/20 05:16:08;;;;;;;;;6.75;5.75;;;;;7.13;47.96;102303.91;5048476;28;45283;-63
2022/03/20 05:18:34;;;;;;;;;6.50;6.00;;;;;7.11;48.00;102303.06;5062114;28;45323;-62
2022/03/20 05:20:59;;;;;;;;;10.00;7.00;;;;;7.09;47.96;102295.25;5061883;28;45594;-62
2022/03/20 05:23:25;;;;;;;;;7.25;6.00;;;;;7.08;47.92;102297.91;5061824;28;45932;-63
2022/03/20 05:25:50;;;;;;;;;11.75;6.00;;;;;6.99;48.47;102284.09;5061716;28;45191;-62
2022/03/20 05:28:16;;;;;;;;;6.00;5.00;;;;;7.02;47.97;102291.00;5061993;28;45226;-62
2022/03/20 05:30:43;;;;;;;;;7.50;6.00;;;;;7.02;47.89;102295.38;5061671;28;45355;-62
2022/03/20 05:33:12;;;;;;;;;9.25;5.75;;;;;7.00;47.69;102291.06;5061265;28;45426;-62
2022/03/20 05:35:39;;;;;;;;;10.50;6.50;;;;;6.94;47.99;102290.31;5060599;28;45539;-62
2022/03/20 05:38:09;;;;;;;;;6.25;4.00;;;;;6.90;47.79;102288.66;5059566;28;45448;-62
2022/03/20 05:40:38;;;;;;;;;8.75;7.00;;;;;6.89;48.75;102292.16;5051620;28;45729;-63
2022/03/20 05:43:05;;;;;;;;;10.25;6.25;;;;;6.89;48.74;102294.78;5039026;28;46124;-62
2022/03/20 05:45:31;;;;;;;;;13.75;7.00;;;;;6.86;48.66;102290.44;5040233;28;45326;-63
2022/03/20 05:47:57;;;;;;;;;9.00;5.75;;;;;6.83;48.29;102287.03;5041000;28;45352;-63
2022/03/20 05:50:23;;;;;;;;;7.00;5.75;;;;;6.82;48.08;102291.41;5041361;28;45403;-63
2022/03/20 05:52:49;;;;;;;;;7.75;6.50;;;;;6.82;49.06;102304.50;5041035;28;45439;-63
2022/03/20 05:55:15;;;;;;;;;7.00;5.50;;;;;6.82;48.47;102294.03;5040991;28;45424;-62
2022/03/20 06:00:27;;;;;;;;;5.00;5.00;;;;;6.80;48.49;102298.44;5041048;28;45427;-63
2022/03/20 06:02:53;;;;;;;;;6.50;5.50;;;;;6.80;48.33;102305.44;5040681;28;46222;-62
2022/03/20 06:05:19;;;;;;;;;9.25;5.75;;;;;6.77;48.75;102293.25;5041116;28;45225;-62
2022/03/20 06:07:46;;;;;;;;;5.00;5.00;;;;;6.75;49.00;102292.41;5040920;28;45297;-62
2022/03/20 06:10:16;;;;;;;;;5.25;3.25;;;;;6.71;48.46;102291.63;5041148;28;45517;-62
2022/03/20 06:12:43;;;;;;;;;10.00;6.00;;;;;6.67;48.03;102289.94;5040862;28;45566;-63
2022/03/20 06:15:09;;;;;;;;;3.00;2.75;;;;;6.64;48.35;102287.38;5040959;28;45352;-62
2022/03/20 06:17:39;;;;;;;;;9.75;7.50;;;;;6.62;49.11;102291.75;5040869;28;45345;-62
2022/03/20 06:20:06;;;;;;;;;10.25;5.00;;;;;6.63;49.04;102297.84;5040951;28;45756;-63
2022/03/20 06:22:33;;;;;;;;;9.00;7.00;;;;;6.64;49.32;102297.84;5040677;28;46221;-63
2022/03/20 06:24:59;;;;;;;;;10.25;7.00;;;;;6.65;49.29;102315.28;5039572;28;45271;-62
2022/03/20 06:27:24;;;;;;;;;13.25;7.00;;;;;6.66;49.39;102313.53;5040610;28;45162;-62
2022/03/20 06:29:50;;;;;;;;;8.50;7.00;;;;;6.73;48.79;102304.69;5040868;28;45147;-63
2022/03/20 06:32:15;;;;;;;;;10.75;9.25;;;;;6.82;48.50;102317.59;5040523;28;45277;-62
2022/03/20 06:34:42;;;;;;;;;9.00;6.00;;;;;6.89;48.57;102313.13;5040810;28;45319;-62
2022/03/20 06:37:08;;;;;;;;;10.25;7.50;;;;;6.94;48.45;102306.88;5040773;28;45346;-62
2022/03/20 06:39:33;;;;;;;;;8.25;8.25;;;;;7.13;49.00;102322.25;5048259;28;45306;-65
2022/03/20 06:42:00;;;;;;;;;12.25;8.00;;;;;7.28;48.42;102322.81;5038770;28;45983;-62
2022/03/20 06:44:25;;;;;;;;;10.75;8.00;;;;;7.42;48.23;102321.66;5041376;28;45482;-61
2022/03/20 06:46:53;;;;;;;;;14.50;7.75;;;;;7.51;47.80;102322.34;5045228;28;45370;-62
2022/03/20 06:49:19;;;;;;;;;11.00;8.75;;;;;7.59;47.89;102329.19;5052659;28;45257;-61
2022/03/20 06:51:44;;;;;;;;;9.75;8.50;;;;;7.64;47.75;102333.44;5041622;28;45267;-61
2022/03/20 06:54:10;;;;;;;;;5.50;5.00;;;;;7.66;47.78;102336.00;5053649;28;45224;-62
2022/03/20 06:56:35;;;;;;;;;12.50;11.00;;;;;7.68;47.71;102332.47;5044795;28;45461;-62
2022/03/20 06:59:01;;;;;;;;;13.25;10.25;;;;;7.72;47.75;102342.00;5043835;28;45334;-65
2022/03/20 07:01:26;;;;;;;;;11.75;11.00;;;;;7.72;47.95;102336.75;5053948;28;46000;-64
2022/03/20 07:03:54;;;;;;;;;11.50;8.00;;;;;7.76;47.31;102340.19;5049472;28;45439;-63
2022/03/20 07:06:20;;;;;;;;;11.50;8.25;;;;;7.72;47.35;102344.63;5055603;28;45409;-63
2022/03/20 07:08:45;;;;;;;;;11.00;10.00;;;;;7.73;47.91;102341.09;5050104;28;45252;-64
2022/03/20 07:11:12;;;;;;;;;11.50;10.00;;;;;7.79;47.65;102342.72;5054652;28;46053;-64
2022/03/20 07:13:50;;;;;;;;;14.75;13.75;;;;;7.75;47.60;102339.31;5049824;28;45403;-64
2022/03/20 07:16:16;;;;;;;;;7.50;7.50;;;;;7.77;47.77;102336.66;5046923;28;45254;-64
2022/03/20 07:18:45;;;;;;;;;12.75;12.00;;;;;7.81;47.51;102340.91;5049756;28;46603;-64
2022/03/20 07:21:13;;;;;;;;;16.00;10.25;;;;;7.80;47.28;102347.94;5057454;28;45515;-64
2022/03/20 07:23:39;;;;;;;;;16.75;11.25;;;;;7.75;47.61;102348.94;5058294;28;45237;-64
2022/03/20 07:31:32;;;;;;;;;13.25;10.25;;;;;7.80;47.66;102347.94;5063347;28;45934;-64
2022/03/20 07:33:57;;;;;;;;;14.00;14.00;;;;;7.83;47.71;102353.13;5043407;28;45222;-63
2022/03/20 07:36:23;;;;;;;;;17.00;15.50;;;;;7.87;47.60;102345.19;5057041;28;45423;-63
2022/03/20 07:38:51;;;;;;;;;22.00;14.50;;;;;7.91;48.04;102345.09;5057896;28;45537;-63
2022/03/20 07:41:17;;;;;;;;;20.50;16.00;;;;;8.00;47.84;102346.66;5053059;28;46550;-63
2022/03/20 07:43:43;;;;;;;;;20.25;14.50;;;;;8.03;48.09;102352.66;5062194;28;45395;-64
2022/03/20 07:46:08;;;;;;;;;16.00;11.00;;;;;8.08;47.51;102350.81;5061740;28;45437;-63
2022/03/20 07:48:34;;;;;;;;;19.00;13.25;;;;;8.13;47.64;102350.69;5057457;28;45182;-63
2022/03/20 07:51:00;;;;;;;;;22.75;15.25;;;;;8.16;47.70;102350.63;5059369;28;46277;-63
2022/03/20 07:53:26;;;;;;;;;17.25;16.25;;;;;8.18;48.13;102356.72;5052601;28;45371;-64
2022/03/20 07:55:52;;;;;;;;;17.00;14.00;;;;;8.20;48.04;102354.91;5050756;28;45383;-63
2022/03/20 07:58:19;;;;;;;;;21.50;17.00;;;;;8.24;47.97;102353.09;5063568;28;45502;-63
2022/03/20 08:00:45;;;;;;;;;17.00;16.25;;;;;8.30;47.73;102352.94;5051486;28;46309;-63
2022/03/20 08:03:10;;;;;;;;;18.75;15.50;;;;;8.27;47.79;102347.75;5049848;28;45226;-63
2022/03/20 08:05:36;;;;;;;;;20.50;15.75;;;;;8.25;47.68;102339.91;5049451;28;45261;-63
2022/03/20 08:08:02;;;;;;;;;21.75;19.50;;;;;8.23;48.27;102340.88;5049165;28;45304;-64
2022/03/20 08:10:28;;;;;;;;;22.50;20.25;;;;;8.28;47.84;102344.22;5048463;28;46740;-68
2022/03/20 08:12:54;;;;;;;;;24.75;17.00;;;;;8.35;48.00;102345.84;5050326;28;45763;-64
2022/03/20 08:15:19;;;;;;;;;21.75;19.75;;;;;8.44;48.04;102348.22;5049476;28;45427;-63
2022/03/20 08:17:46;;;;;;;;;23.50;22.25;;;;;8.47;48.17;102348.16;5049904;28;45315;-62
2022/03/20 08:20:14;;;;;;;;;20.50;19.50;;;;;8.43;48.07;102340.41;5048101;28;45463;-62
2022/03/20 08:22:41;;;;;;;;;22.00;17.75;;;;;8.48;47.92;102349.91;5050244;28;45265;-62
2022/03/20 08:25:07;;;;;;;;;23.00;19.25;;;;;8.55;48.09;102335.72;5050658;28;45235;-62
2022/03/20 08:27:47;;;;;;;;;29.75;22.75;;;;;8.64;47.89;102345.13;5051355;28;45412;-62
2022/03/20 08:30:15;;;;;;;;;21.50;17.50;;;;;8.72;47.83;102340.53;5050690;28;46221;-62
2022/03/20 08:32:42;;;;;;;;;24.50;18.00;;;;;8.82;47.88;102343.78;5052809;28;45526;-63
2022/03/20 08:35:09;;;;;;;;;25.25;20.00;;;;;8.90;47.47;102349.69;5050444;28;45289;-63
2022/03/20 08:37:35;;;;;;;;;19.00;19.00;;;;;8.95;47.61;102340.78;5052942;28;45248;-62
2022/03/20 08:40:03;;;;;;;;;25.25;19.75;;;;;9.03;47.66;102344.97;5049947;28;45355;-62
2022/03/20 08:42:29;;;;;;;;;30.00;20.25;;;;;9.04;47.14;102336.19;5049572;28;45535;-62
2022/03/20 08:44:54;;;;;;;;;24.25;21.25;;;;;9.11;47.48;102341.22;5051240;28;45345;-63
2022/03/20 08:47:20;;;;;;;;;23.75;20.50;;;;;9.21;47.56;102347.09;5051092;28;45438;-63
2022/03/20 08:49:46;;;;;;;;;31.25;20.75;;;;;9.31;47.17;102345.91;5051487;28;45409;-63
2022/03/20 08:52:11;;;;;;;;;23.25;21.00;;;;;9.39;46.85;102351.81;5051605;28;45336;-63
2022/03/20 08:54:37;;;;;;;;;23.75;21.50;;;;;9.46;46.90;102352.53;5050950;28;45373;-63
2022/03/20 08:57:05;;;;;;;;;28.25;25.25;;;;;9.48;46.65;102346.31;5056867;28;45462;-63
2022/03/20 08:59:32;;;;;;;;;23.00;21.00;;;;;9.58;46.60;102351.31;5049628;28;45396;-62
2022/03/20 09:01:57;;;;;;;;;25.75;16.75;;;;;9.67;46.44;102349.28;5050268;28;45435;-62
2022/03/20 09:04:23;;;;;;;;;29.75;23.50;;;;;9.75;46.56;102355.16;5050535;28;45428;-62
2022/03/20 09:06:50;;;;;;;;;25.00;19.00;;;;;9.83;46.42;102349.66;5053516;28;45817;-63
2022/03/20 09:09:15;;;;;;;;;29.50;24.00;;;;;9.93;46.10;102356.38;5049719;28;45479;-63
2022/03/20 09:11:45;;;;;;;;;25.25;23.50;;;;;9.99;46.10;102353.56;5048311;28;45463;-63
2022/03/20 09:14:10;;;;;;;;;28.50;24.25;;;;;10.08;46.39;102355.91;5050679;28;45382;-63
2022/03/20 09:19:20;;;;;;;;;32.25;27.00;;;;;10.23;45.68;102351.09;5050363;28;45510;-63
2022/03/20 09:21:46;;;;;;;;;27.00;20.25;;;;;10.29;45.94;102364.06;5049587;28;45305;-63
2022/03/20 09:24:11;;;;;;;;;36.75;28.75;;;;;10.37;45.56;102361.19;5048118;28;45386;-61
2022/03/20 09:26:37;;;;;;;;;31.00;26.50;;;;;10.42;45.53;102368.00;5050267;28;45614;-61
2022/03/20 09:29:04;;;;;;;;;33.75;26.00;;;;;10.46;45.54;102364.38;5051231;28;45304;-62
2022/03/20 09:31:31;;;;;;;;;30.00;26.00;;;;;10.53;44.93;102360.63;5048774;28;45348;-63
2022/03/20 09:33:58;;;;;;;;;35.50;31.25;;;;;10.59;44.84;102357.81;5027342;28;45808;-61
2022/03/20 09:36:23;;;;;;;;;31.00;28.75;;;;;10.69;45.26;102354.84;5039150;28;46646;-63
2022/03/20 09:38:50;;;;;;;;;37.00;30.00;;;;;10.74;44.50;102360.81;5049741;28;45996;-63
2022/03/20 09:41:16;;;;;;;;;31.75;24.25;;;;;10.79;44.18;102356.25;5052804;28;45514;-65
2022/03/20 09:43:44;;;;;;;;;30.75;26.00;;;;;10.80;44.51;102365.88;5053629;28;45398;-68
2022/03/20 09:46:09;;;;;;;;;46.25;29.25;;;;;10.82;44.29;102358.78;5053810;28;45345;-63
2022/03/20 09:48:35;;;;;;;;;33.25;28.75;;;;;10.86;44.31;102356.00;5042993;28;46040;-61
2022/03/20 09:51:04;;;;;;;;;32.00;27.00;;;;;10.94;44.10;102358.38;5040839;28;45531;-62
2022/03/20 09:53:30;;;;;;;;;29.50;26.75;;;;;10.99;43.90;102356.44;5040876;28;45408;-63
2022/03/20 09:55:56;;;;;;;;;35.25;30.50;;;;;11.10;43.52;102361.31;5040787;28;45452;-63
2022/03/20 09:58:26;;;;;;;;;38.00;32.00;;;;;11.16;43.54;102359.34;5040713;28;46360;-63
2022/03/20 10:00:55;;;;;;;;;27.75;24.50;;;;;11.23;43.65;102356.47;5040737;28;45436;-63
2022/03/20 10:03:23;;;;;;;;;30.25;26.00;;;;;11.26;43.21;102354.59;5046849;28;45493;-62
2022/03/20 10:06:17;;;;;;;;;33.25;24.25;;;;;11.34;43.35;102356.94;5049011;28;45395;-62
2022/03/20 10:08:55;;;;;;;;;31.00;30.25;;;;;11.36;42.96;102366.50;5047892;28;46556;-62
2022/03/20 10:11:21;;;;;;;;;35.50;27.25;;;;;11.41;42.64;102361.09;5043668;28;45635;-62
2022/03/20 10:14:09;;;;;;;;;35.00;32.00;;;;;11.44;42.76;102368.88;5047855;28;45318;-62
2022/03/20 10:16:37;;;;;;;;;34.75;31.25;;;;;11.50;42.87;102362.50;5048426;28;45726;-62
2022/03/20 10:19:22;;;;;;;;;33.75;30.50;;;;;11.56;42.14;102360.50;5048527;28;45419;-62
2022/03/20 10:21:56;;;;;;;;;38.25;31.75;;;;;11.62;42.00;102362.94;5048011;28;45713;-61
2022/03/20 10:24:25;;;;;;;;;42.00;34.00;;;;;11.66;41.78;102361.03;5047622;28;46530;-62
2022/03/20 10:27:03;;;;;;;;;27.00;23.00;;;;;11.74;41.48;102364.22;5031379;28;45636;-61
2022/03/20 10:29:30;;;;;;;;;23.75;22.25;;;;;11.80;41.31;102350.84;5044739;28;45565;-62
2022/03/20 10:32:01;;;;;;;;;30.25;26.75;;;;;11.88;40.92;102359.31;5045669;28;45472;-62
2022/03/20 10:34:27;;;;;;;;;27.00;16.50;;;;;11.93;40.65;102357.38;5050800;28;45450;-62
2022/03/20 10:36:53;;;;;;;;;29.25;25.00;;;;;12.01;40.74;102346.50;5046878;28;45644;-62
2022/03/20 10:39:21;;;;;;;;;28.50;24.50;;;;;12.07;40.17;102354.16;5050683;28;45453;-62
2022/03/20 10:41:49;;;;;;;;;29.50;24.00;;;;;12.08;40.27;102358.53;5049338;28;45450;-65
2022/03/20 10:44:20;;;;;;;;;26.50;24.50;;;;;12.07;40.19;102348.03;5046843;28;45646;-63
2022/03/20 10:47:09;;;;;;;;;25.25;18.75;;;;;12.08;39.29;102353.25;5048543;28;45466;-61
2022/03/20 10:49:35;;;;;;;;;30.75;23.00;;;;;12.08;39.26;102352.38;5046132;28;45420;-60
2022/03/20 10:52:13;;;;;;;;;28.50;20.75;;;;;12.13;39.32;102355.72;5046105;28;45443;-61
2022/03/20 10:54:53;;;;;;;;;18.75;13.50;;;;;12.22;39.23;102342.97;5046010;28;45565;-63
2022/03/20 10:57:19;;;;;;;;;23.75;22.00;;;;;12.23;38.80;102346.47;5050971;28;45649;-65
2022/03/20 11:00:00;;;;;;;;;24.50;22.75;;;;;12.27;38.74;102345.44;5051600;28;46161;-62
2022/03/20 11:02:27;;;;;;;;;24.75;21.00;;;;;12.26;38.66;102347.25;5049487;28;45471;-64
2022/03/20 11:04:53;;;;;;;;;25.75;19.50;;;;;12.30;37.97;102345.31;5052665;28;45463;-64
2022/03/20 11:07:21;;;;;;;;;24.00;19.75;;;;;12.33;38.60;102342.56;5051091;28;45588;-64
2022/03/20 11:09:49;;;;;;;;;23.50;18.25;;;;;12.40;38.38;102340.50;5047931;28;45546;-64
2022/03/20 11:12:18;;;;;;;;;29.25;18.75;;;;;12.44;38.13;102347.41;5052194;28;45542;-64
2022/03/20 11:14:46;;;;;;;;;28.75;25.75;;;;;12.46;38.04;102341.13;5052129;28;45686;-65
2022/03/20 11:17:17;;;;;;;;;23.00;19.25;;;;;12.49;37.99;102346.28;5034925;28;45338;-69
2022/03/20 11:19:50;;;;;;;;;24.75;22.75;;;;;12.49;37.97;102341.00;5052093;28;46176;-66
2022/03/20 11:22:20;;;;;;;;;23.25;18.50;;;;;12.56;37.58;102336.34;5052068;28;45532;-67
2022/03/20 11:24:52;;;;;;;;;20.50;20.00;;;;;12.61;37.42;102334.34;5050405;28;45477;-67
2022/03/20 11:27:28;;;;;;;;;19.75;19.00;;;;;12.67;37.33;102333.22;5039151;28;45542;-71
2022/03/20 11:30:04;;;;;;;;;23.50;17.25;;;;;12.77;36.67;102331.91;5051513;28;46080;-66
2022/03/20 11:32:30;;;;;;;;;21.25;15.75;;;;;12.80;36.75;102331.78;5050869;28;45417;-66
2022/03/20 11:34:56;;;;;;;;;16.25;16.00;;;;;12.83;36.43;102339.56;5052117;28;45496;-64
2022/03/20 11:37:22;;;;;;;;;16.00;15.00;;;;;12.91;36.16;102333.94;5042063;28;45793;-65
2022/03/20 11:40:10;;;;;;;;;24.50;16.50;;;;;12.92;35.80;102330.38;5044992;28;46163;-65
2022/03/20 11:42:36;;;;;;;;;23.00;15.00;;;;;12.91;35.83;102329.53;5042493;28;45435;-65
2022/03/20 11:45:04;;;;;;;;;21.50;18.50;;;;;12.92;36.13;102325.94;5042861;28;45426;-66
2022/03/20 11:47:41;;;;;;;;;21.75;20.00;;;;;12.91;35.78;102334.81;5046073;28;45377;-65
2022/03/20 11:50:39;;;;;;;;;23.25;19.75;;;;;12.91;36.14;102328.66;5041309;28;45571;-63
2022/03/20 11:53:05;;;;;;;;;26.75;23.25;;;;;12.97;36.18;102323.97;5050711;28;45572;-61
2022/03/20 11:55:48;;;;;;;;;23.25;19.25;;;;;12.98;36.28;102317.75;5061703;28;45440;-62
2022/03/20 11:58:16;;;;;;;;;23.75;17.75;;;;;13.04;35.61;102324.56;5042216;28;45351;-68
2022/03/20 12:00:44;;;;;;;;;19.00;14.75;;;;;13.09;35.51;102314.63;5060660;28;45466;-62